Time;durP1;ratioP1;P1;durP2;ratioP2;P2;SDS_P1;SDS_P2;PMS_P1;PMS_P2;Temp;Humidity;BMP_temperature;BMP_pressure;BME280_temperature;BME280_humidity;BME280_pressure;Samples;Min_cycle;Max_cycle;Signal;HPM_P1;HPM_P2
2022/05/26 00:02:00;;;;;;;10.38;7.10;;;;;;;22.48;100.00;100089.56;5089589;28;20213;-73
2022/05/26 00:04:28;;;;;;;9.32;6.88;;;;;;;22.53;100.00;100092.94;5087418;28;20260;-73
2022/05/26 00:06:56;;;;;;;11.70;6.93;;;;;;;22.49;100.00;100086.00;5035565;28;20666;-74
2022/05/26 00:09:22;;;;;;;10.05;7.57;;;;;;;22.39;100.00;100081.97;5088109;28;20226;-73
2022/05/26 00:11:49;;;;;;;10.60;7.38;;;;;;;22.30;100.00;100084.88;5072501;28;20191;-73
2022/05/26 00:14:16;;;;;;;13.13;6.85;;;;;;;22.23;100.00;100066.59;5073441;28;20199;-73
2022/05/26 00:16:45;;;;;;;8.85;6.75;;;;;;;22.06;100.00;100024.03;5055361;28;20198;-73
2022/05/26 00:19:13;;;;;;;9.65;6.70;;;;;;;22.15;100.00;100052.78;5089446;28;20201;-73
2022/05/26 00:21:41;;;;;;;28.20;14.98;;;;;;;21.94;100.00;100024.41;5091232;28;20210;-73
2022/05/26 00:24:09;;;;;;;10.13;6.93;;;;;;;21.92;100.00;100028.03;5087815;28;20194;-73
2022/05/26 00:26:36;;;;;;;8.25;7.18;;;;;;;21.99;100.00;100027.78;5034819;28;20599;-73
2022/05/26 00:29:04;;;;;;;11.32;8.00;;;;;;;22.06;100.00;100024.03;5082909;28;20205;-73
2022/05/26 00:31:31;;;;;;;13.20;8.77;;;;;;;22.07;100.00;100028.41;5090928;28;20218;-73
2022/05/26 00:33:58;;;;;;;12.98;8.85;;;;;;;22.02;100.00;100032.97;5055338;28;20251;-73
2022/05/26 00:36:38;;;;;;;11.27;7.65;;;;;;;21.97;100.00;100024.34;5090502;28;20210;-73
2022/05/26 00:39:08;;;;;;;12.68;7.90;;;;;;;21.93;100.00;100001.59;5073161;28;20253;-73
2022/05/26 00:41:39;;;;;;;11.20;7.70;;;;;;;22.06;100.00;100004.69;5070110;28;20650;-73
2022/05/26 00:44:07;;;;;;;8.80;7.90;;;;;;;21.81;100.00;99970.28;5071835;28;20203;-73
2022/05/26 00:46:39;;;;;;;9.57;8.10;;;;;;;22.00;100.00;100003.13;5075956;28;20619;-73
2022/05/26 00:49:12;;;;;;;8.93;7.22;;;;;;;21.88;100.00;99992.91;5064171;28;20278;-73
2022/05/26 00:51:39;;;;;;;14.75;7.85;;;;;;;21.95;100.00;100002.41;5089530;28;20226;-73
2022/05/26 00:54:13;;;;;;;12.45;8.35;;;;;;;21.97;100.00;100000.59;5071315;28;20205;-73
2022/05/26 00:56:44;;;;;;;14.27;7.50;;;;;;;21.90;100.00;100000.81;5090011;28;20197;-73
2022/05/26 00:59:17;;;;;;;12.80;7.35;;;;;;;21.88;100.00;100011.41;5090691;28;20259;-73
2022/05/26 01:01:45;;;;;;;11.18;7.72;;;;;;;21.84;100.00;99996.56;5076579;28;20209;-73
2022/05/26 01:04:18;;;;;;;12.88;7.70;;;;;;;21.75;100.00;99994.22;5087057;28;20201;-73
2022/05/26 01:06:47;;;;;;;12.52;8.60;;;;;;;21.65;100.00;99996.28;5070724;28;20650;-73
2022/05/26 01:09:15;;;;;;;13.40;8.07;;;;;;;21.64;100.00;99999.84;5081093;28;20221;-73
2022/05/26 01:11:44;;;;;;;13.65;8.25;;;;;;;21.65;100.00;99998.09;5071208;28;20642;-73
2022/05/26 01:14:15;;;;;;;15.20;8.35;;;;;;;21.64;100.00;99991.94;5080750;28;20276;-74
2022/05/26 01:16:52;;;;;;;14.65;8.73;;;;;;;21.64;100.00;99988.44;5091061;28;20209;-73
2022/05/26 01:19:42;;;;;;;29.30;18.05;;;;;;;21.77;100.00;100017.03;5077849;28;20202;-73
2022/05/26 01:22:21;;;;;;;16.30;9.48;;;;;;;21.83;100.00;100021.22;5070399;28;20198;-72
2022/05/26 01:25:19;;;;;;;19.80;8.75;;;;;;;21.72;100.00;100010.16;5074034;28;20197;-73
2022/05/26 01:27:54;;;;;;;16.23;8.23;;;;;;;21.60;100.00;100014.03;5070347;28;20207;-73
2022/05/26 01:30:26;;;;;;;13.25;9.15;;;;;;;21.34;100.00;100011.31;5070569;28;20233;-73
2022/05/26 01:33:11;;;;;;;16.45;11.95;;;;;;;21.26;100.00;100005.41;5070889;28;20198;-73
2022/05/26 01:35:43;;;;;;;19.83;13.23;;;;;;;21.12;100.00;99997.91;5081537;28;20632;-73
2022/05/26 01:38:21;;;;;;;12.05;9.43;;;;;;;21.18;100.00;100010.94;5076563;28;20198;-73
2022/05/26 01:40:56;;;;;;;12.85;9.55;;;;;;;20.90;100.00;99973.06;5070337;28;20214;-73
2022/05/26 01:43:31;;;;;;;12.90;10.10;;;;;;;21.19;100.00;100025.81;5073132;28;20277;-73
2022/05/26 01:46:05;;;;;;;18.33;13.07;;;;;;;21.21;100.00;100029.31;5066673;28;20205;-73
2022/05/26 01:48:43;;;;;;;20.20;13.15;;;;;;;21.26;100.00;100024.75;5090380;28;20221;-73
2022/05/26 01:51:16;;;;;;;24.13;15.13;;;;;;;21.10;100.00;100007.66;5088473;28;20218;-73
2022/05/26 01:53:50;;;;;;;21.83;13.82;;;;;;;21.27;100.00;100023.84;5074870;28;20639;-73
2022/05/26 01:56:24;;;;;;;18.23;11.80;;;;;;;20.94;100.00;99953.59;5076561;28;20199;-73
2022/05/26 01:58:58;;;;;;;17.02;11.40;;;;;;;21.41;100.00;100028.69;5094090;28;20208;-73
2022/05/26 02:01:29;;;;;;;21.58;13.32;;;;;;;21.24;100.00;100010.75;5093800;28;20577;-73
2022/05/26 02:03:59;;;;;;;16.45;11.55;;;;;;;21.35;100.00;100022.75;5054120;28;20202;-73
2022/05/26 02:06:31;;;;;;;25.38;17.55;;;;;;;21.38;100.00;100015.59;5063416;28;20203;-73
2022/05/26 02:09:05;;;;;;;23.10;15.75;;;;;;;21.45;100.00;100024.19;5074807;28;20218;-73
2022/05/26 02:11:33;;;;;;;32.80;17.40;;;;;;;21.43;100.00;100020.75;5073374;28;20215;-73
2022/05/26 02:14:07;;;;;;;23.83;15.85;;;;;;;21.58;100.00;100021.13;5074105;28;20301;-74
2022/05/26 02:16:39;;;;;;;21.58;13.30;;;;;;;21.63;100.00;100034.19;5086564;28;20217;-73
2022/05/26 02:19:12;;;;;;;15.82;10.82;;;;;;;21.40;100.00;100063.94;5073431;28;20209;-73
2022/05/26 02:21:45;;;;;;;17.15;11.48;;;;;;;21.05;100.00;100067.50;5073589;28;20218;-73
2022/05/26 02:24:18;;;;;;;19.35;12.45;;;;;;;20.92;100.00;100047.69;5073291;28;20223;-73
2022/05/26 02:26:45;;;;;;;19.33;12.02;;;;;;;20.81;100.00;100105.09;5077199;28;20209;-73
2022/05/26 02:31:57;;;;;;;14.88;11.00;;;;;;;20.12;100.00;100192.78;5063509;28;20220;-73
2022/05/26 02:34:27;;;;;;;20.70;13.82;;;;;;;20.17;100.00;100174.25;5091415;28;20557;-73
2022/05/26 02:36:58;;;;;;;20.30;13.85;;;;;;;20.10;100.00;100191.09;5078720;28;20219;-73
2022/05/26 02:39:25;;;;;;;23.80;17.08;;;;;;;19.79;100.00;100125.09;5071344;28;20199;-73
2022/05/26 02:41:54;;;;;;;15.48;11.13;;;;;;;20.14;100.00;100154.13;5075551;28;20203;-73
2022/05/26 02:44:22;;;;;;;20.05;12.80;;;;;;;19.86;100.00;100139.84;5073240;28;20191;-73
2022/05/26 02:47:03;;;;;;;25.08;15.77;;;;;;;19.84;100.00;100123.22;5086880;28;20194;-73
2022/05/26 02:49:44;;;;;;;26.30;15.23;;;;;;;20.15;100.00;100155.00;5036292;28;20597;-74
2022/05/26 02:52:21;;;;;;;16.90;12.75;;;;;;;20.27;100.00;100184.56;5087814;28;20241;-75
2022/05/26 02:55:02;;;;;;;17.23;10.23;;;;;;;20.49;100.00;100181.44;5081983;28;20190;-75
2022/05/26 02:57:36;;;;;;;14.13;10.30;;;;;;;20.26;100.00;100124.88;5086049;28;20213;-74
2022/05/26 03:00:07;;;;;;;16.63;10.20;;;;;;;20.70;100.00;100180.91;5073792;28;20198;-74
2022/05/26 03:02:41;;;;;;;12.88;9.18;;;;;;;20.73;100.00;100186.09;5073035;28;20198;-74
2022/05/26 03:05:16;;;;;;;12.07;8.52;;;;;;;20.84;100.00;100184.06;5057845;28;20210;-74
2022/05/26 03:07:46;;;;;;;13.70;9.40;;;;;;;20.77;100.00;100157.00;5086268;28;20226;-74
2022/05/26 03:10:15;;;;;;;12.48;9.40;;;;;;;20.80;100.00;100163.97;5028695;28;20199;-74
2022/05/26 03:12:43;;;;;;;12.02;8.68;;;;;;;20.93;100.00;100172.44;5072385;28;20686;-74
2022/05/26 03:15:11;;;;;;;12.77;8.73;;;;;;;20.93;100.00;100177.72;5072074;28;20268;-74
2022/05/26 03:17:37;;;;;;;14.70;9.10;;;;;;;20.78;100.00;100163.16;5077855;28;20199;-74
2022/05/26 03:20:05;;;;;;;16.92;11.75;;;;;;;20.85;100.00;100154.19;5092291;28;20662;-74
2022/05/26 03:22:33;;;;;;;19.35;11.05;;;;;;;21.03;100.00;100189.75;5092821;28;20194;-72
2022/05/26 03:25:00;;;;;;;12.90;8.60;;;;;;;21.10;100.00;100202.78;5085285;28;20264;-72
2022/05/26 03:27:27;;;;;;;14.20;8.60;;;;;;;21.07;100.00;100186.13;5075727;28;20217;-72
2022/05/26 03:29:55;;;;;;;27.35;17.17;;;;;;;21.38;100.00;100217.88;5088554;28;20842;-73
2022/05/26 03:32:23;;;;;;;11.43;7.90;;;;;;;21.39;100.00;100227.53;5072846;28;20292;-73
2022/05/26 03:43:05;;;;;;;11.48;8.15;;;;;;;21.22;100.00;100228.81;5071657;28;20582;-72
2022/05/26 03:45:34;;;;;;;9.25;7.55;;;;;;;21.10;100.00;100218.59;5071325;28;20244;-72
2022/05/26 03:48:01;;;;;;;9.18;8.13;;;;;;;21.28;100.00;100225.16;5072008;28;20195;-72
2022/05/26 03:50:28;;;;;;;13.73;9.32;;;;;;;21.52;100.00;100236.81;5072486;28;20252;-73
2022/05/26 03:52:57;;;;;;;12.27;8.60;;;;;;;21.50;100.00;100183.25;5028266;28;20218;-72
2022/05/26 03:55:25;;;;;;;22.75;11.90;;;;;;;21.66;100.00;100224.13;5072564;28;20203;-72
2022/05/26 03:57:53;;;;;;;13.60;8.13;;;;;;;21.92;100.00;100229.56;5090467;28;20194;-72
2022/05/26 04:00:24;;;;;;;19.45;10.45;;;;;;;22.17;100.00;100224.44;5091577;28;20209;-72
2022/05/26 04:02:51;;;;;;;12.13;8.15;;;;;;;22.40;100.00;100239.59;5080214;28;20213;-72
2022/05/26 04:05:19;;;;;;;11.40;7.43;;;;;;;22.34;100.00;100245.03;5084013;28;20198;-72
2022/05/26 04:07:46;;;;;;;8.75;7.40;;;;;;;22.48;100.00;100248.13;5074044;28;20246;-73
2022/05/26 04:10:15;;;;;;;11.68;7.82;;;;;;;22.37;100.00;100239.66;5086165;28;20217;-72
2022/05/26 04:12:43;;;;;;;8.90;7.72;;;;;;;22.32;100.00;100262.72;5079526;28;20222;-72
2022/05/26 04:15:11;;;;;;;8.25;7.38;;;;;;;22.18;100.00;100261.38;5091229;28;20664;-72
2022/05/26 04:17:38;;;;;;;10.02;7.32;;;;;;;22.45;100.00;100264.09;5091410;28;20193;-72
2022/05/26 04:20:07;;;;;;;8.85;6.97;;;;;;;22.53;100.00;100219.78;5037577;28;20236;-72
2022/05/26 04:22:34;;;;;;;13.48;7.75;;;;;;;22.78;100.00;100271.00;5052552;28;20209;-72
2022/05/26 04:25:02;;;;;;;12.32;7.65;;;;;;;22.65;100.00;100237.91;5081156;28;20205;-72
2022/05/26 04:27:32;;;;;;;10.82;7.30;;;;;;;23.06;100.00;100258.59;5070976;28;20206;-72
2022/05/26 04:30:01;;;;;;;9.10;6.50;;;;;;;23.40;100.00;100271.56;5073358;28;21536;-72
2022/05/26 04:32:28;;;;;;;10.32;6.70;;;;;;;23.90;100.00;100290.16;5091082;28;20750;-72
2022/05/26 04:34:55;;;;;;;11.95;6.38;;;;;;;24.28;100.00;100308.19;5090766;28;20229;-72
2022/05/26 04:37:24;;;;;;;9.48;5.85;;;;;;;24.66;100.00;100291.66;5090756;28;20202;-72
2022/05/26 04:39:53;;;;;;;7.30;5.18;;;;;;;25.07;100.00;100299.78;5065958;28;20207;-72
2022/05/26 04:42:20;;;;;;;7.97;5.25;;;;;;;25.65;93.91;100303.53;5074710;28;20190;-72
2022/05/26 04:44:49;;;;;;;7.78;4.30;;;;;;;25.98;91.38;100318.00;5074476;28;20209;-72
2022/05/26 04:47:17;;;;;;;5.03;4.60;;;;;;;26.75;84.26;100326.88;5085005;28;20248;-72
2022/05/26 04:49:45;;;;;;;5.90;4.65;;;;;;;27.02;80.07;100314.94;5088553;28;20195;-72
2022/05/26 04:52:15;;;;;;;11.05;4.63;;;;;;;27.97;73.83;100337.66;5090704;28;20229;-72
2022/05/26 04:54:42;;;;;;;13.68;5.25;;;;;;;28.39;69.28;100339.88;5082188;28;20195;-72
2022/05/26 04:57:09;;;;;;;4.18;3.25;;;;;;;28.40;62.60;100341.59;5072919;28;20212;-72
2022/05/26 04:59:36;;;;;;;9.35;3.58;;;;;;;27.93;65.45;100341.44;5068148;28;20830;-72
2022/05/26 05:02:05;;;;;;;3.65;3.00;;;;;;;28.75;62.19;100345.03;5070978;28;20199;-73
2022/05/26 05:04:32;;;;;;;4.82;3.92;;;;;;;28.16;60.16;100276.25;5063834;28;20194;-72
2022/05/26 05:06:59;;;;;;;9.57;4.70;;;;;;;28.50;62.35;100338.34;5035169;28;20190;-73
2022/05/26 05:09:26;;;;;;;11.57;4.13;;;;;;;29.81;61.19;100339.72;5075088;28;20233;-73
2022/05/26 05:11:53;;;;;;;7.38;3.00;;;;;;;30.25;56.42;100330.84;5090975;28;20233;-72
2022/05/26 05:14:20;;;;;;;6.10;3.53;;;;;;;30.93;53.83;100326.44;5076994;28;20203;-72
2022/05/26 05:16:47;;;;;;;7.40;2.92;;;;;;;31.31;52.26;100335.56;5078523;28;20204;-70
2022/05/26 05:19:17;;;;;;;5.05;3.17;;;;;;;31.71;48.87;100332.91;5088290;28;20193;-73
2022/05/26 05:21:49;;;;;;;9.50;3.28;;;;;;;31.34;48.50;100334.47;5070696;28;20291;-72
2022/05/26 05:24:21;;;;;;;4.55;2.83;;;;;;;31.19;50.11;100347.06;5089365;28;20233;-72
2022/05/26 05:26:52;;;;;;;3.38;2.45;;;;;;;31.43;48.88;100356.16;5090948;28;20225;-72
2022/05/26 05:29:24;;;;;;;3.42;2.80;;;;;;;31.53;46.79;100351.09;5090564;28;20197;-72
2022/05/26 05:31:55;;;;;;;6.20;2.75;;;;;;;31.26;47.90;100356.44;5074436;28;20283;-72
2022/05/26 05:34:28;;;;;;;10.95;3.38;;;;;;;30.92;50.65;100341.69;5074344;28;20202;-72
2022/05/26 05:36:56;;;;;;;13.77;4.80;;;;;;;30.80;53.82;100346.94;5074447;28;20602;-72
2022/05/26 05:39:24;;;;;;;7.10;4.32;;;;;;;30.64;54.98;100296.22;5074404;28;20642;-73
2022/05/26 05:41:51;;;;;;;10.23;4.78;;;;;;;30.81;54.93;100290.63;5087913;28;20643;-72
2022/05/26 05:44:18;;;;;;;7.60;4.22;;;;;;;30.88;54.72;100337.47;5094123;28;20597;-72
2022/05/26 05:46:58;;;;;;;9.55;5.13;;;;;;;31.25;55.00;100348.50;5093796;28;20634;-73
2022/05/26 05:49:28;;;;;;;7.47;4.07;;;;;;;31.03;55.85;100358.91;5094148;28;20258;-72
2022/05/26 05:51:57;;;;;;;6.28;4.57;;;;;;;30.64;58.23;100352.44;5093702;28;20229;-72
2022/05/26 05:54:24;;;;;;;6.45;4.78;;;;;;;30.75;59.21;100357.94;5093632;28;20194;-73
2022/05/26 05:56:51;;;;;;;3.88;3.30;;;;;;;30.19;59.51;100349.91;5058165;28;20190;-72
2022/05/26 05:59:18;;;;;;;5.57;3.72;;;;;;;29.38;63.74;100340.53;5093530;28;20559;-72
2022/05/26 06:01:44;;;;;;;5.18;3.75;;;;;;;29.37;64.71;100346.81;5093761;28;20214;-73
2022/05/26 06:04:11;;;;;;;5.28;4.00;;;;;;;29.45;66.54;100349.91;5093802;28;20643;-72
2022/05/26 06:06:42;;;;;;;7.10;3.70;;;;;;;29.19;69.48;100302.44;5093663;28;20202;-72
2022/05/26 06:09:13;;;;;;;5.32;4.55;;;;;;;29.21;67.39;100344.16;5093266;28;20232;-72
2022/05/26 06:11:40;;;;;;;4.38;3.97;;;;;;;28.93;70.99;100344.84;5093169;28;20236;-72
2022/05/26 06:14:07;;;;;;;4.80;3.83;;;;;;;28.67;71.70;100324.13;5093669;28;20194;-72
2022/05/26 06:16:34;;;;;;;5.20;3.83;;;;;;;28.40;77.86;100325.56;5093772;28;20194;-72
2022/05/26 06:19:01;;;;;;;13.68;5.05;;;;;;;28.59;77.16;100331.63;5093304;28;20198;-72
2022/05/26 06:21:28;;;;;;;8.13;5.00;;;;;;;28.45;80.27;100352.88;5093287;28;20196;-73
2022/05/26 06:23:57;;;;;;;7.28;4.75;;;;;;;28.17;84.60;100339.31;5093147;28;20247;-71
2022/05/26 06:26:24;;;;;;;23.85;5.75;;;;;;;27.91;83.37;100337.97;5092953;28;20689;-72
2022/05/26 06:31:35;;;;;;;11.05;5.10;;;;;;;27.57;93.48;100360.19;5093043;28;20233;-72
2022/05/26 06:39:32;;;;;;;5.72;5.10;;;;;;;27.42;94.96;100369.75;5093209;28;20201;-73
2022/05/26 06:42:07;;;;;;;11.40;6.03;;;;;;;26.97;95.60;100348.88;5093215;28;20677;-73
2022/05/26 06:44:37;;;;;;;9.48;5.50;;;;;;;27.16;95.95;100356.00;5093058;28;20270;-72
2022/05/26 06:47:09;;;;;;;5.88;5.28;;;;;;;27.09;93.19;100377.59;5057877;28;20198;-73
2022/05/26 06:49:36;;;;;;;6.63;5.38;;;;;;;26.89;98.15;100377.69;5093045;28;20666;-73
2022/05/26 06:52:04;;;;;;;10.40;4.35;;;;;;;27.10;92.07;100376.66;5092933;28;20218;-72
2022/05/26 06:54:36;;;;;;;7.35;4.95;;;;;;;27.11;96.26;100377.53;5024034;28;20226;-72
2022/05/26 06:57:03;;;;;;;6.45;5.28;;;;;;;27.25;93.38;100383.06;5092820;28;20205;-72
2022/05/26 06:59:30;;;;;;;8.80;5.20;;;;;;;27.09;92.40;100348.31;5092582;28;20201;-71
2022/05/26 07:01:57;;;;;;;9.75;5.35;;;;;;;27.45;89.46;100374.97;5092685;28;20202;-72
2022/05/26 07:04:24;;;;;;;7.63;5.20;;;;;;;27.16;86.23;100362.19;5092552;28;20194;-72
2022/05/26 07:06:53;;;;;;;6.75;5.20;;;;;;;27.26;84.27;100365.25;5092181;28;20581;-72
2022/05/26 07:09:21;;;;;;;4.90;4.32;;;;;;;27.48;86.68;100389.94;5092122;28;20226;-72
2022/05/26 07:11:49;;;;;;;10.85;5.18;;;;;;;27.41;84.87;100391.13;5056990;28;20225;-72
2022/05/26 07:14:16;;;;;;;8.60;5.00;;;;;;;27.44;83.77;100377.66;5092071;28;20198;-72
2022/05/26 07:16:45;;;;;;;4.65;4.18;;;;;;;27.62;80.98;100405.22;5092415;28;20198;-71
2022/05/26 07:19:12;;;;;;;4.93;4.47;;;;;;;27.69;78.79;100406.63;5092075;28;20686;-72
2022/05/26 07:21:39;;;;;;;5.15;4.30;;;;;;;27.61;78.47;100401.72;5092204;28;20201;-71
2022/05/26 07:24:07;;;;;;;6.82;4.80;;;;;;;27.67;81.77;100405.88;5091924;28;20194;-71
2022/05/26 07:26:34;;;;;;;9.00;5.07;;;;;;;27.91;83.15;100412.63;5091810;28;20198;-72
2022/05/26 07:29:03;;;;;;;5.88;4.68;;;;;;;27.97;80.65;100413.16;5092128;28;20213;-72
2022/05/26 07:31:30;;;;;;;6.13;4.80;;;;;;;27.68;83.00;100419.13;5092258;28;20649;-72
2022/05/26 07:33:57;;;;;;;6.47;5.20;;;;;;;27.42;87.44;100408.84;5091845;28;20229;-72
2022/05/26 07:41:58;;;;;;;6.25;5.38;;;;;;;27.57;87.60;100406.31;5091909;28;20201;-72
2022/05/26 07:44:28;;;;;;;6.78;5.28;;;;;;;27.43;85.93;100407.91;5091828;28;20209;-71
2022/05/26 07:46:55;;;;;;;6.78;5.22;;;;;;;27.34;88.23;100408.34;5091908;28;20217;-72
2022/05/26 07:49:22;;;;;;;6.28;5.63;;;;;;;27.23;92.20;100414.19;5091589;28;20672;-72
2022/05/26 07:51:48;;;;;;;7.80;5.60;;;;;;;27.21;90.20;100424.06;5090760;28;20258;-72
2022/05/26 07:54:15;;;;;;;7.55;4.93;;;;;;;27.25;86.58;100411.47;5091539;28;20678;-72
2022/05/26 07:56:42;;;;;;;4.78;4.38;;;;;;;27.36;83.68;100414.50;5091531;28;20190;-72
2022/05/26 07:59:10;;;;;;;8.15;5.22;;;;;;;27.51;86.46;100419.06;5091648;28;20612;-72
2022/05/26 08:01:38;;;;;;;9.15;5.30;;;;;;;27.60;85.65;100429.28;5091484;28;20635;-73
2022/05/26 08:04:07;;;;;;;7.00;5.35;;;;;;;27.69;84.08;100407.50;5091270;28;20206;-73
2022/05/26 08:06:34;;;;;;;5.75;4.72;;;;;;;27.85;80.83;100418.28;5091016;28;20225;-73
2022/05/26 08:09:01;;;;;;;9.55;4.90;;;;;;;27.78;82.48;100399.06;5091536;28;20269;-73
2022/05/26 08:11:28;;;;;;;11.38;5.05;;;;;;;27.97;81.16;100418.50;5091176;28;20205;-72
2022/05/26 08:13:55;;;;;;;4.70;4.20;;;;;;;28.02;78.40;100402.25;5090989;28;20709;-72
2022/05/26 08:16:21;;;;;;;4.10;3.80;;;;;;;28.00;76.13;100413.00;5090917;28;20248;-73
2022/05/26 08:18:50;;;;;;;4.95;4.43;;;;;;;28.32;74.82;100424.72;5071950;28;20247;-71
2022/05/26 08:21:18;;;;;;;5.68;4.03;;;;;;;28.44;73.96;100407.19;5091168;28;20202;-71
2022/05/26 08:23:45;;;;;;;6.00;4.30;;;;;;;28.24;76.50;100408.25;5091002;28;20280;-71
2022/05/26 08:26:12;;;;;;;5.80;4.70;;;;;;;28.41;73.18;100426.03;5071780;28;20252;-71
2022/05/26 08:28:39;;;;;;;7.25;3.85;;;;;;;28.65;70.05;100426.50;5090878;28;20213;-71
2022/05/26 08:31:08;;;;;;;3.88;3.58;;;;;;;28.63;70.98;100433.75;5090814;28;20198;-71
2022/05/26 08:33:36;;;;;;;4.68;3.60;;;;;;;28.78;69.81;100430.28;5072006;28;20252;-72
2022/05/26 08:36:06;;;;;;;4.65;3.95;;;;;;;28.87;69.52;100424.44;5090758;28;20194;-71
2022/05/26 08:38:33;;;;;;;7.75;4.57;;;;;;;28.60;72.42;100421.44;5090908;28;20206;-71
2022/05/26 08:41:01;;;;;;;8.30;3.83;;;;;;;28.27;73.53;100412.56;5090732;28;20689;-71
2022/05/26 08:43:36;;;;;;;5.47;4.28;;;;;;;28.23;74.45;100429.66;5055028;28;20194;-71
2022/05/26 08:46:07;;;;;;;4.93;4.32;;;;;;;27.95;73.37;100403.53;5090507;28;20618;-71
2022/05/26 08:48:44;;;;;;;9.55;4.43;;;;;;;28.28;75.64;100435.63;5090492;28;20289;-71
2022/05/26 08:51:17;;;;;;;4.93;4.45;;;;;;;28.11;75.51;100424.97;5090755;28;20648;-71
2022/05/26 08:53:44;;;;;;;9.00;4.25;;;;;;;28.10;77.37;100441.91;5084455;28;20224;-72
2022/05/26 08:56:16;;;;;;;4.88;4.07;;;;;;;28.36;76.20;100446.75;5050294;28;20203;-73
2022/05/26 08:58:46;;;;;;;12.93;5.07;;;;;;;28.35;75.89;100442.38;5050384;28;20663;-72
2022/05/26 09:01:17;;;;;;;7.07;4.55;;;;;;;28.51;75.92;100429.91;5032082;28;20219;-72
2022/05/26 09:03:44;;;;;;;3.85;3.65;;;;;;;28.62;76.48;100454.22;5052718;28;20199;-72
2022/05/26 09:06:16;;;;;;;5.43;4.20;;;;;;;28.70;74.93;100457.41;5054411;28;20253;-72
2022/05/26 09:14:22;;;;;;;6.35;3.95;;;;;;;28.56;73.40;100457.25;5054269;28;20222;-72
2022/05/26 09:16:49;;;;;;;5.57;4.50;;;;;;;28.34;71.77;100459.31;5054166;28;20194;-72
2022/05/26 09:19:18;;;;;;;7.43;4.32;;;;;;;28.57;70.90;100466.97;5054098;28;20722;-72
2022/05/26 09:21:48;;;;;;;4.53;4.03;;;;;;;28.52;72.16;100439.66;5054071;28;20257;-72
2022/05/26 09:24:24;;;;;;;6.75;4.20;;;;;;;28.18;67.53;100463.72;5054741;28;20210;-70
2022/05/26 09:26:55;;;;;;;8.63;4.15;;;;;;;28.28;67.11;100456.97;5054334;28;20206;-71
2022/05/26 09:29:26;;;;;;;9.07;4.20;;;;;;;28.34;67.45;100459.31;5054167;28;20203;-71
2022/05/26 09:31:54;;;;;;;4.60;4.20;;;;;;;28.40;66.72;100450.97;5053849;28;20643;-71
2022/05/26 09:34:22;;;;;;;6.65;3.95;;;;;;;28.49;64.98;100456.72;5053871;28;20723;-71
2022/05/26 09:36:53;;;;;;;23.60;3.78;;;;;;;28.66;64.35;100450.47;5053886;28;20257;-71
2022/05/26 09:39:22;;;;;;;3.20;2.85;;;;;;;28.40;64.65;100453.63;5053738;28;20593;-70
2022/05/26 09:41:51;;;;;;;5.03;3.95;;;;;;;28.60;64.37;100429.44;5053734;28;20203;-71
2022/05/26 09:44:48;;;;;;;4.40;4.00;;;;;;;28.76;64.87;100449.03;5053584;28;20204;-72
2022/05/26 09:47:30;;;;;;;7.57;3.90;;;;;;;28.81;63.58;100414.97;5053775;28;20282;-72
2022/05/26 09:49:59;;;;;;;5.05;3.78;;;;;;;28.74;63.12;100426.94;5053969;28;20222;-73
2022/05/26 09:52:30;;;;;;;7.20;3.83;;;;;;;28.60;64.74;100439.25;5053588;28;20199;-73
2022/05/26 09:55:24;;;;;;;5.50;4.38;;;;;;;29.08;65.38;100430.41;5060784;28;20216;-73
2022/05/26 09:58:03;;;;;;;12.98;3.97;;;;;;;28.88;62.74;100419.03;5031562;28;20196;-74
2022/05/26 10:00:38;;;;;;;9.07;4.95;;;;;;;29.11;63.12;100431.09;5031277;28;20282;-71
2022/05/26 10:03:11;;;;;;;6.75;4.13;;;;;;;29.15;62.50;100445.13;5031123;28;20672;-72
2022/05/26 10:05:46;;;;;;;3.78;3.42;;;;;;;29.23;61.31;100442.91;5031162;28;20666;-71
2022/05/26 10:08:25;;;;;;;3.67;3.35;;;;;;;28.89;57.87;100420.75;5031057;28;20331;-71
2022/05/26 10:10:59;;;;;;;9.45;4.00;;;;;;;29.07;57.88;100458.06;5031010;28;20215;-72
2022/05/26 10:13:53;;;;;;;7.88;3.95;;;;;;;29.03;57.63;100436.00;5030355;28;20654;-72
2022/05/26 10:16:32;;;;;;;5.07;3.00;;;;;;;29.19;57.30;100444.00;5030936;28;20682;-72
2022/05/26 10:19:14;;;;;;;18.00;3.35;;;;;;;29.16;57.45;100444.19;5031103;28;20195;-71
2022/05/26 10:21:59;;;;;;;5.03;2.72;;;;;;;29.17;57.49;100454.81;5030711;28;20196;-72
2022/05/26 10:24:44;;;;;;;5.35;3.60;;;;;;;29.39;57.96;100446.47;5030741;28;20586;-73
2022/05/26 10:27:23;;;;;;;3.85;2.60;;;;;;;29.27;57.53;100439.16;5030977;28;20199;-70
2022/05/26 10:30:05;;;;;;;10.90;3.10;;;;;;;29.42;57.34;100448.97;5030749;28;20203;-72
2022/05/26 10:32:40;;;;;;;6.75;3.00;;;;;;;29.25;56.15;100425.00;5030560;28;20195;-72
2022/05/26 10:35:19;;;;;;;3.40;2.78;;;;;;;29.37;55.48;100443.88;5048576;28;20211;-72
2022/05/26 10:38:06;;;;;;;7.93;3.45;;;;;;;29.41;56.28;100436.56;5052763;28;20686;-72
2022/05/26 10:40:43;;;;;;;5.63;3.00;;;;;;;29.39;56.59;100379.69;5052409;28;20203;-72
2022/05/26 10:43:15;;;;;;;5.45;2.67;;;;;;;29.77;55.79;100438.91;5052691;28;20328;-72
2022/05/26 10:45:45;;;;;;;4.53;2.80;;;;;;;29.75;53.56;100433.66;5052564;28;20195;-72
2022/05/26 10:48:21;;;;;;;6.38;2.97;;;;;;;29.95;52.90;100430.72;5052663;28;20202;-72
2022/05/26 10:50:51;;;;;;;7.35;2.58;;;;;;;29.79;53.43;100437.88;5052272;28;20198;-72
2022/05/26 10:53:25;;;;;;;5.80;2.90;;;;;;;29.74;53.66;100426.59;5052506;28;20223;-73
2022/05/26 10:55:57;;;;;;;7.97;2.88;;;;;;;29.90;53.90;100427.44;5052254;28;20686;-70
2022/05/26 10:58:31;;;;;;;7.22;2.95;;;;;;;29.88;55.76;100402.59;5052439;28;20199;-72
2022/05/26 11:01:03;;;;;;;3.22;2.85;;;;;;;29.75;53.12;100412.25;5052171;28;20256;-72
2022/05/26 11:03:36;;;;;;;5.70;2.53;;;;;;;29.69;52.71;100414.44;5033453;28;20203;-72
2022/05/26 11:06:08;;;;;;;5.40;2.78;;;;;;;29.68;53.56;100426.94;5049904;28;20237;-72
2022/05/26 11:08:40;;;;;;;4.30;2.45;;;;;;;29.68;54.43;100400.19;5052114;28;20326;-74
2022/05/26 11:11:14;;;;;;;4.68;3.03;;;;;;;29.91;54.30;100422.94;5052233;28;20203;-74
2022/05/26 11:13:49;;;;;;;3.30;2.58;;;;;;;29.78;53.02;100417.44;5051770;28;20285;-73
2022/05/26 11:19:20;;;;;;;13.27;2.78;;;;;;;29.61;52.84;100404.19;5037159;28;20222;-74
2022/05/26 11:21:47;;;;;;;6.80;2.78;;;;;;;29.73;52.92;100406.16;5050167;28;20230;-73
2022/05/26 11:24:14;;;;;;;4.90;2.60;;;;;;;30.00;52.71;100396.50;5052247;28;20209;-73
2022/05/26 11:26:47;;;;;;;13.45;2.63;;;;;;;30.18;52.73;100407.06;5032627;28;20671;-73
2022/05/26 11:29:21;;;;;;;4.15;2.42;;;;;;;30.19;52.45;100428.38;5052220;28;20674;-72
2022/05/26 11:37:34;;;;;;;5.22;2.50;;;;;;;29.71;51.92;100384.00;5036040;28;20305;-72
2022/05/26 11:40:06;;;;;;;4.72;2.58;;;;;;;29.97;52.94;100394.03;5051503;28;20199;-73
2022/05/26 11:42:38;;;;;;;2.45;2.25;;;;;;;29.98;51.89;100387.72;5049408;28;20682;-72
2022/05/26 11:45:21;;;;;;;3.63;2.63;;;;;;;30.01;51.69;100392.03;5050986;28;20206;-72
2022/05/26 11:47:54;;;;;;;8.27;2.50;;;;;;;30.04;50.75;100391.00;5029064;28;20200;-72
2022/05/26 11:50:51;;;;;;;5.28;2.55;;;;;;;30.22;50.43;100387.19;5028836;28;20196;-72
2022/05/26 11:53:38;;;;;;;11.68;2.90;;;;;;;30.40;50.71;100368.19;5028622;28;20239;-73
2022/05/26 11:56:40;;;;;;;5.70;2.20;;;;;;;30.45;49.15;100367.94;5028837;28;20326;-73
2022/05/26 11:59:36;;;;;;;8.20;2.45;;;;;;;30.74;49.26;100390.19;4979803;28;20212;-74
2022/05/26 12:02:31;;;;;;;2.97;2.05;;;;;;;30.56;48.50;100384.19;4973727;28;20205;-74
2022/05/26 12:05:18;;;;;;;7.00;2.53;;;;;;;30.62;49.11;100378.44;4929677;29;20206;-74
2022/05/26 12:07:45;;;;;;;4.78;1.92;;;;;;;30.52;48.48;100329.13;4929115;29;20261;-73
2022/05/26 12:10:20;;;;;;;4.22;2.30;;;;;;;30.78;46.60;100363.13;4929470;29;20731;-73
2022/05/26 12:12:48;;;;;;;4.60;2.25;;;;;;;30.87;46.14;100373.25;4931096;29;20215;-73
2022/05/26 12:15:21;;;;;;;5.88;2.20;;;;;;;30.73;46.39;100367.03;4930099;29;20223;-73